sensor_id;sensor_type;location;lat;lon;timestamp;P1;durP1;ratioP1;P2;durP2;ratioP2
45476;SDS011;31958;51.756;-2.556;2023-08-01T00:02:18;26.95;;;5.55;;
45476;SDS011;31958;51.756;-2.556;2023-08-01T00:04:44;26.58;;;6.35;;
45476;SDS011;31958;51.756;-2.556;2023-08-01T00:07:09;30.52;;;6.35;;
45476;SDS011;31958;51.756;-2.556;2023-08-01T00:09:34;32.10;;;6.32;;
45476;SDS011;31958;51.756;-2.556;2023-08-01T00:11:59;27.98;;;6.75;;
45476;SDS011;31958;51.756;-2.556;2023-08-01T00:14:25;22.10;;;5.47;;
45476;SDS011;31958;51.756;-2.556;2023-08-01T00:16:50;26.83;;;5.40;;
45476;SDS011;31958;51.756;-2.556;2023-08-01T00:19:16;20.48;;;5.82;;
45476;SDS011;31958;51.756;-2.556;2023-08-01T00:21:41;24.00;;;5.50;;
45476;SDS011;31958;51.756;-2.556;2023-08-01T00:24:07;25.50;;;5.55;;
45476;SDS011;31958;51.756;-2.556;2023-08-01T00:26:33;20.30;;;6.00;;
45476;SDS011;31958;51.756;-2.556;2023-08-01T00:28:58;26.25;;;5.20;;
45476;SDS011;31958;51.756;-2.556;2023-08-01T00:31:24;26.95;;;5.65;;
45476;SDS011;31958;51.756;-2.556;2023-08-01T00:33:49;21.85;;;5.65;;
45476;SDS011;31958;51.756;-2.556;2023-08-01T00:36:15;23.98;;;6.65;;
45476;SDS011;31958;51.756;-2.556;2023-08-01T00:38:40;18.35;;;5.30;;
45476;SDS011;31958;51.756;-2.556;2023-08-01T00:41:08;32.75;;;5.78;;
45476;SDS011;31958;51.756;-2.556;2023-08-01T00:43:33;28.27;;;5.63;;
45476;SDS011;31958;51.756;-2.556;2023-08-01T00:45:59;19.55;;;5.00;;
45476;SDS011;31958;51.756;-2.556;2023-08-01T00:48:26;19.65;;;4.93;;
45476;SDS011;31958;51.756;-2.556;2023-08-01T00:50:51;23.33;;;5.18;;
45476;SDS011;31958;51.756;-2.556;2023-08-01T00:53:17;22.30;;;5.15;;
45476;SDS011;31958;51.756;-2.556;2023-08-01T00:55:43;21.15;;;5.28;;
45476;SDS011;31958;51.756;-2.556;2023-08-01T00:58:09;14.32;;;4.88;;
45476;SDS011;31958;51.756;-2.556;2023-08-01T01:00:34;12.10;;;4.50;;
45476;SDS011;31958;51.756;-2.556;2023-08-01T01:03:00;29.65;;;5.00;;
45476;SDS011;31958;51.756;-2.556;2023-08-01T01:05:25;17.95;;;4.18;;
45476;SDS011;31958;51.756;-2.556;2023-08-01T01:07:52;22.75;;;4.93;;
45476;SDS011;31958;51.756;-2.556;2023-08-01T01:10:18;27.70;;;5.70;;
45476;SDS011;31958;51.756;-2.556;2023-08-01T01:12:43;22.60;;;5.43;;
45476;SDS011;31958;51.756;-2.556;2023-08-01T01:15:09;20.80;;;5.10;;
45476;SDS011;31958;51.756;-2.556;2023-08-01T01:17:34;23.25;;;4.55;;
45476;SDS011;31958;51.756;-2.556;2023-08-01T01:19:59;15.95;;;4.57;;
45476;SDS011;31958;51.756;-2.556;2023-08-01T01:22:25;24.15;;;4.72;;
45476;SDS011;31958;51.756;-2.556;2023-08-01T01:24:51;21.13;;;5.13;;
45476;SDS011;31958;51.756;-2.556;2023-08-01T01:27:17;23.65;;;4.55;;
45476;SDS011;31958;51.756;-2.556;2023-08-01T01:29:43;13.82;;;3.70;;
45476;SDS011;31958;51.756;-2.556;2023-08-01T01:32:08;17.60;;;3.90;;
45476;SDS011;31958;51.756;-2.556;2023-08-01T01:34:34;14.00;;;3.88;;
45476;SDS011;31958;51.756;-2.556;2023-08-01T01:37:00;17.17;;;4.28;;
45476;SDS011;31958;51.756;-2.556;2023-08-01T01:39:25;24.92;;;5.20;;
45476;SDS011;31958;51.756;-2.556;2023-08-01T01:41:50;28.02;;;4.53;;
45476;SDS011;31958;51.756;-2.556;2023-08-01T01:44:15;20.10;;;4.63;;
45476;SDS011;31958;51.756;-2.556;2023-08-01T01:46:41;23.25;;;5.55;;
45476;SDS011;31958;51.756;-2.556;2023-08-01T01:49:06;19.42;;;4.30;;
45476;SDS011;31958;51.756;-2.556;2023-08-01T01:51:31;21.42;;;4.13;;
45476;SDS011;31958;51.756;-2.556;2023-08-01T01:53:57;20.15;;;4.55;;
45476;SDS011;31958;51.756;-2.556;2023-08-01T01:56:22;20.10;;;4.10;;
45476;SDS011;31958;51.756;-2.556;2023-08-01T01:58:47;22.77;;;4.65;;
45476;SDS011;31958;51.756;-2.556;2023-08-01T02:01:13;15.02;;;4.03;;
45476;SDS011;31958;51.756;-2.556;2023-08-01T02:03:38;21.77;;;4.00;;
45476;SDS011;31958;51.756;-2.556;2023-08-01T02:06:04;20.50;;;4.53;;
45476;SDS011;31958;51.756;-2.556;2023-08-01T02:08:30;15.35;;;3.97;;
45476;SDS011;31958;51.756;-2.556;2023-08-01T02:10:55;14.85;;;3.88;;
45476;SDS011;31958;51.756;-2.556;2023-08-01T02:13:23;17.40;;;4.10;;
45476;SDS011;31958;51.756;-2.556;2023-08-01T02:15:49;13.15;;;3.63;;
45476;SDS011;31958;51.756;-2.556;2023-08-01T02:18:14;16.27;;;3.53;;
45476;SDS011;31958;51.756;-2.556;2023-08-01T02:20:39;16.98;;;4.05;;
45476;SDS011;31958;51.756;-2.556;2023-08-01T02:23:05;15.73;;;3.92;;
45476;SDS011;31958;51.756;-2.556;2023-08-01T02:25:30;15.93;;;3.80;;
45476;SDS011;31958;51.756;-2.556;2023-08-01T02:27:55;22.00;;;4.15;;
45476;SDS011;31958;51.756;-2.556;2023-08-01T02:30:21;11.52;;;3.50;;
45476;SDS011;31958;51.756;-2.556;2023-08-01T02:32:46;14.57;;;3.35;;
45476;SDS011;31958;51.756;-2.556;2023-08-01T02:35:11;16.83;;;3.00;;
45476;SDS011;31958;51.756;-2.556;2023-08-01T02:37:37;11.20;;;3.03;;
45476;SDS011;31958;51.756;-2.556;2023-08-01T02:40:03;14.57;;;3.22;;
45476;SDS011;31958;51.756;-2.556;2023-08-01T02:42:32;11.40;;;3.78;;
45476;SDS011;31958;51.756;-2.556;2023-08-01T02:44:57;16.83;;;3.30;;
45476;SDS011;31958;51.756;-2.556;2023-08-01T02:47:23;12.50;;;3.17;;
45476;SDS011;31958;51.756;-2.556;2023-08-01T02:49:48;20.77;;;3.85;;
45476;SDS011;31958;51.756;-2.556;2023-08-01T02:52:13;13.88;;;3.10;;
45476;SDS011;31958;51.756;-2.556;2023-08-01T02:54:38;9.30;;;2.90;;
45476;SDS011;31958;51.756;-2.556;2023-08-01T02:57:04;11.50;;;3.53;;
45476;SDS011;31958;51.756;-2.556;2023-08-01T02:59:29;7.68;;;2.72;;
45476;SDS011;31958;51.756;-2.556;2023-08-01T03:01:58;12.57;;;2.63;;
45476;SDS011;31958;51.756;-2.556;2023-08-01T03:04:23;9.57;;;3.40;;
45476;SDS011;31958;51.756;-2.556;2023-08-01T03:06:48;13.38;;;2.80;;
45476;SDS011;31958;51.756;-2.556;2023-08-01T03:09:14;9.52;;;2.80;;
45476;SDS011;31958;51.756;-2.556;2023-08-01T03:11:39;7.45;;;2.92;;
45476;SDS011;31958;51.756;-2.556;2023-08-01T03:14:04;12.90;;;2.85;;
45476;SDS011;31958;51.756;-2.556;2023-08-01T03:16:30;12.85;;;2.85;;
45476;SDS011;31958;51.756;-2.556;2023-08-01T03:18:56;14.75;;;3.45;;
45476;SDS011;31958;51.756;-2.556;2023-08-01T03:21:21;21.27;;;3.38;;
45476;SDS011;31958;51.756;-2.556;2023-08-01T03:23:47;12.88;;;2.60;;
45476;SDS011;31958;51.756;-2.556;2023-08-01T03:26:12;14.13;;;3.20;;
45476;SDS011;31958;51.756;-2.556;2023-08-01T03:28:37;8.45;;;2.25;;
45476;SDS011;31958;51.756;-2.556;2023-08-01T03:31:03;11.90;;;2.97;;
45476;SDS011;31958;51.756;-2.556;2023-08-01T03:33:28;10.25;;;2.78;;
45476;SDS011;31958;51.756;-2.556;2023-08-01T03:35:54;8.23;;;2.35;;
45476;SDS011;31958;51.756;-2.556;2023-08-01T03:38:19;12.18;;;2.10;;
45476;SDS011;31958;51.756;-2.556;2023-08-01T03:40:44;6.95;;;2.00;;
45476;SDS011;31958;51.756;-2.556;2023-08-01T03:43:10;10.95;;;2.05;;
45476;SDS011;31958;51.756;-2.556;2023-08-01T03:45:35;13.10;;;2.30;;
45476;SDS011;31958;51.756;-2.556;2023-08-01T03:48:00;7.47;;;2.40;;
45476;SDS011;31958;51.756;-2.556;2023-08-01T03:50:26;8.85;;;2.22;;
45476;SDS011;31958;51.756;-2.556;2023-08-01T03:52:51;13.20;;;2.15;;
45476;SDS011;31958;51.756;-2.556;2023-08-01T03:55:16;8.70;;;2.38;;
45476;SDS011;31958;51.756;-2.556;2023-08-01T03:57:42;8.65;;;2.10;;
45476;SDS011;31958;51.756;-2.556;2023-08-01T04:00:08;9.40;;;2.33;;
45476;SDS011;31958;51.756;-2.556;2023-08-01T04:02:41;7.97;;;2.13;;
45476;SDS011;31958;51.756;-2.556;2023-08-01T04:05:07;9.30;;;2.30;;
45476;SDS011;31958;51.756;-2.556;2023-08-01T04:07:34;9.52;;;2.42;;
45476;SDS011;31958;51.756;-2.556;2023-08-01T04:10:02;15.07;;;2.72;;
45476;SDS011;31958;51.756;-2.556;2023-08-01T04:12:28;13.23;;;3.00;;
45476;SDS011;31958;51.756;-2.556;2023-08-01T04:14:54;12.23;;;2.78;;
45476;SDS011;31958;51.756;-2.556;2023-08-01T04:17:20;9.75;;;2.65;;
45476;SDS011;31958;51.756;-2.556;2023-08-01T04:19:45;11.13;;;2.55;;
45476;SDS011;31958;51.756;-2.556;2023-08-01T04:22:10;6.82;;;2.30;;
45476;SDS011;31958;51.756;-2.556;2023-08-01T04:24:36;12.25;;;2.55;;
45476;SDS011;31958;51.756;-2.556;2023-08-01T04:27:01;10.57;;;2.58;;
45476;SDS011;31958;51.756;-2.556;2023-08-01T04:29:27;6.68;;;2.40;;
45476;SDS011;31958;51.756;-2.556;2023-08-01T04:31:52;13.50;;;2.80;;
45476;SDS011;31958;51.756;-2.556;2023-08-01T04:34:17;10.02;;;2.58;;
45476;SDS011;31958;51.756;-2.556;2023-08-01T04:36:43;11.68;;;2.38;;
45476;SDS011;31958;51.756;-2.556;2023-08-01T04:39:08;10.07;;;2.20;;
45476;SDS011;31958;51.756;-2.556;2023-08-01T04:41:33;9.85;;;2.50;;
45476;SDS011;31958;51.756;-2.556;2023-08-01T04:43:59;9.93;;;2.15;;
45476;SDS011;31958;51.756;-2.556;2023-08-01T04:46:24;8.57;;;2.28;;
45476;SDS011;31958;51.756;-2.556;2023-08-01T04:48:49;8.57;;;2.15;;
45476;SDS011;31958;51.756;-2.556;2023-08-01T04:51:14;8.90;;;2.15;;
45476;SDS011;31958;51.756;-2.556;2023-08-01T04:53:40;18.65;;;2.28;;
45476;SDS011;31958;51.756;-2.556;2023-08-01T04:56:05;7.47;;;2.00;;
45476;SDS011;31958;51.756;-2.556;2023-08-01T04:58:30;13.63;;;2.20;;
45476;SDS011;31958;51.756;-2.556;2023-08-01T05:00:56;9.88;;;2.13;;
45476;SDS011;31958;51.756;-2.556;2023-08-01T05:03:21;11.13;;;2.80;;
45476;SDS011;31958;51.756;-2.556;2023-08-01T05:05:46;10.38;;;2.30;;
45476;SDS011;31958;51.756;-2.556;2023-08-01T05:08:12;11.55;;;2.22;;
45476;SDS011;31958;51.756;-2.556;2023-08-01T05:10:37;12.98;;;2.33;;
45476;SDS011;31958;51.756;-2.556;2023-08-01T05:13:02;13.27;;;2.28;;
45476;SDS011;31958;51.756;-2.556;2023-08-01T05:15:28;7.65;;;2.20;;
45476;SDS011;31958;51.756;-2.556;2023-08-01T05:17:53;12.23;;;2.22;;
45476;SDS011;31958;51.756;-2.556;2023-08-01T05:20:19;9.43;;;2.00;;
45476;SDS011;31958;51.756;-2.556;2023-08-01T05:22:44;8.63;;;2.00;;
45476;SDS011;31958;51.756;-2.556;2023-08-01T05:25:10;14.38;;;2.00;;
45476;SDS011;31958;51.756;-2.556;2023-08-01T05:27:35;7.25;;;1.80;;
45476;SDS011;31958;51.756;-2.556;2023-08-01T05:30:00;6.72;;;1.60;;
45476;SDS011;31958;51.756;-2.556;2023-08-01T05:32:26;13.82;;;1.52;;
45476;SDS011;31958;51.756;-2.556;2023-08-01T05:34:51;6.47;;;1.30;;
45476;SDS011;31958;51.756;-2.556;2023-08-01T05:37:16;9.60;;;1.65;;
45476;SDS011;31958;51.756;-2.556;2023-08-01T05:39:41;10.05;;;1.50;;
45476;SDS011;31958;51.756;-2.556;2023-08-01T05:42:07;5.13;;;1.70;;
45476;SDS011;31958;51.756;-2.556;2023-08-01T05:44:34;11.48;;;1.42;;
45476;SDS011;31958;51.756;-2.556;2023-08-01T05:46:59;6.47;;;1.60;;
45476;SDS011;31958;51.756;-2.556;2023-08-01T05:49:24;4.60;;;1.25;;
45476;SDS011;31958;51.756;-2.556;2023-08-01T05:51:50;7.25;;;1.58;;
45476;SDS011;31958;51.756;-2.556;2023-08-01T05:54:15;5.78;;;1.60;;
45476;SDS011;31958;51.756;-2.556;2023-08-01T05:56:40;4.85;;;1.40;;
45476;SDS011;31958;51.756;-2.556;2023-08-01T05:59:06;7.63;;;1.35;;
45476;SDS011;31958;51.756;-2.556;2023-08-01T06:01:31;4.70;;;1.40;;
45476;SDS011;31958;51.756;-2.556;2023-08-01T06:03:57;7.35;;;1.23;;
45476;SDS011;31958;51.756;-2.556;2023-08-01T06:06:22;4.43;;;1.30;;
45476;SDS011;31958;51.756;-2.556;2023-08-01T06:08:47;4.28;;;1.20;;
45476;SDS011;31958;51.756;-2.556;2023-08-01T06:11:13;8.60;;;1.65;;
45476;SDS011;31958;51.756;-2.556;2023-08-01T06:13:38;5.43;;;1.60;;
45476;SDS011;31958;51.756;-2.556;2023-08-01T06:16:03;9.05;;;1.48;;
45476;SDS011;31958;51.756;-2.556;2023-08-01T06:18:29;6.85;;;1.67;;
45476;SDS011;31958;51.756;-2.556;2023-08-01T06:20:54;4.75;;;1.10;;
45476;SDS011;31958;51.756;-2.556;2023-08-01T06:23:19;9.35;;;1.30;;
45476;SDS011;31958;51.756;-2.556;2023-08-01T06:25:45;6.05;;;1.52;;
45476;SDS011;31958;51.756;-2.556;2023-08-01T06:28:10;5.78;;;1.50;;
45476;SDS011;31958;51.756;-2.556;2023-08-01T06:30:35;4.53;;;1.38;;
45476;SDS011;31958;51.756;-2.556;2023-08-01T06:33:01;6.57;;;1.52;;
45476;SDS011;31958;51.756;-2.556;2023-08-01T06:35:26;12.73;;;1.67;;
45476;SDS011;31958;51.756;-2.556;2023-08-01T06:37:51;7.35;;;1.55;;
45476;SDS011;31958;51.756;-2.556;2023-08-01T06:40:17;5.55;;;1.58;;
45476;SDS011;31958;51.756;-2.556;2023-08-01T06:42:42;9.90;;;1.50;;
45476;SDS011;31958;51.756;-2.556;2023-08-01T06:45:08;4.95;;;1.40;;
45476;SDS011;31958;51.756;-2.556;2023-08-01T06:47:33;5.43;;;1.65;;
45476;SDS011;31958;51.756;-2.556;2023-08-01T06:49:58;6.25;;;1.40;;
45476;SDS011;31958;51.756;-2.556;2023-08-01T06:52:24;4.65;;;1.65;;
45476;SDS011;31958;51.756;-2.556;2023-08-01T06:54:49;7.00;;;1.60;;
45476;SDS011;31958;51.756;-2.556;2023-08-01T06:57:14;4.05;;;1.35;;
45476;SDS011;31958;51.756;-2.556;2023-08-01T06:59:40;5.10;;;1.48;;
45476;SDS011;31958;51.756;-2.556;2023-08-01T07:02:05;4.18;;;1.17;;
45476;SDS011;31958;51.756;-2.556;2023-08-01T07:04:31;7.03;;;1.65;;
45476;SDS011;31958;51.756;-2.556;2023-08-01T07:06:57;6.15;;;1.40;;
45476;SDS011;31958;51.756;-2.556;2023-08-01T07:09:22;4.68;;;1.65;;
45476;SDS011;31958;51.756;-2.556;2023-08-01T07:11:47;4.78;;;1.80;;
45476;SDS011;31958;51.756;-2.556;2023-08-01T07:14:13;5.13;;;1.50;;
45476;SDS011;31958;51.756;-2.556;2023-08-01T07:16:38;6.40;;;1.50;;
45476;SDS011;31958;51.756;-2.556;2023-08-01T07:19:03;5.80;;;1.55;;
45476;SDS011;31958;51.756;-2.556;2023-08-01T07:21:29;3.22;;;1.35;;
45476;SDS011;31958;51.756;-2.556;2023-08-01T07:23:54;5.55;;;1.63;;
45476;SDS011;31958;51.756;-2.556;2023-08-01T07:26:19;6.40;;;1.45;;
45476;SDS011;31958;51.756;-2.556;2023-08-01T07:28:45;3.22;;;1.25;;
45476;SDS011;31958;51.756;-2.556;2023-08-01T07:31:10;3.80;;;1.27;;
45476;SDS011;31958;51.756;-2.556;2023-08-01T07:33:35;6.85;;;1.60;;
45476;SDS011;31958;51.756;-2.556;2023-08-01T07:36:01;5.13;;;1.40;;
45476;SDS011;31958;51.756;-2.556;2023-08-01T07:38:27;5.32;;;1.40;;
45476;SDS011;31958;51.756;-2.556;2023-08-01T07:40:53;5.30;;;1.75;;
45476;SDS011;31958;51.756;-2.556;2023-08-01T07:43:19;5.85;;;1.40;;
45476;SDS011;31958;51.756;-2.556;2023-08-01T07:45:44;2.95;;;1.13;;
45476;SDS011;31958;51.756;-2.556;2023-08-01T07:48:10;4.07;;;1.42;;
45476;SDS011;31958;51.756;-2.556;2023-08-01T07:50:35;4.20;;;1.40;;
45476;SDS011;31958;51.756;-2.556;2023-08-01T07:53:01;4.10;;;1.35;;
45476;SDS011;31958;51.756;-2.556;2023-08-01T07:55:26;5.03;;;1.30;;
45476;SDS011;31958;51.756;-2.556;2023-08-01T07:57:52;8.40;;;1.73;;
45476;SDS011;31958;51.756;-2.556;2023-08-01T08:00:17;5.10;;;1.42;;
45476;SDS011;31958;51.756;-2.556;2023-08-01T08:02:43;5.72;;;1.17;;
45476;SDS011;31958;51.756;-2.556;2023-08-01T08:05:09;3.35;;;1.10;;
45476;SDS011;31958;51.756;-2.556;2023-08-01T08:07:36;2.70;;;0.95;;
45476;SDS011;31958;51.756;-2.556;2023-08-01T08:10:01;7.63;;;1.55;;
45476;SDS011;31958;51.756;-2.556;2023-08-01T08:12:27;8.30;;;1.83;;
45476;SDS011;31958;51.756;-2.556;2023-08-01T08:14:52;3.70;;;1.10;;
45476;SDS011;31958;51.756;-2.556;2023-08-01T08:17:18;4.93;;;1.48;;
45476;SDS011;31958;51.756;-2.556;2023-08-01T08:19:44;3.22;;;1.20;;
45476;SDS011;31958;51.756;-2.556;2023-08-01T08:22:09;5.47;;;1.42;;
45476;SDS011;31958;51.756;-2.556;2023-08-01T08:24:35;5.25;;;1.50;;
45476;SDS011;31958;51.756;-2.556;2023-08-01T08:27:00;3.25;;;1.17;;
45476;SDS011;31958;51.756;-2.556;2023-08-01T08:29:25;5.80;;;1.40;;
45476;SDS011;31958;51.756;-2.556;2023-08-01T08:31:51;4.70;;;1.23;;
45476;SDS011;31958;51.756;-2.556;2023-08-01T08:34:16;4.18;;;1.17;;
45476;SDS011;31958;51.756;-2.556;2023-08-01T08:36:45;2.22;;;0.90;;
45476;SDS011;31958;51.756;-2.556;2023-08-01T08:39:11;3.70;;;0.80;;
45476;SDS011;31958;51.756;-2.556;2023-08-01T08:41:45;3.55;;;1.65;;
45476;SDS011;31958;51.756;-2.556;2023-08-01T08:44:12;5.38;;;1.23;;
45476;SDS011;31958;51.756;-2.556;2023-08-01T08:46:43;5.03;;;1.42;;
45476;SDS011;31958;51.756;-2.556;2023-08-01T08:49:09;4.80;;;1.00;;
45476;SDS011;31958;51.756;-2.556;2023-08-01T08:51:35;5.25;;;1.02;;
45476;SDS011;31958;51.756;-2.556;2023-08-01T08:54:02;2.88;;;1.10;;
45476;SDS011;31958;51.756;-2.556;2023-08-01T08:56:28;5.03;;;1.13;;
45476;SDS011;31958;51.756;-2.556;2023-08-01T08:58:54;4.95;;;1.20;;
45476;SDS011;31958;51.756;-2.556;2023-08-01T09:01:19;9.10;;;1.67;;
45476;SDS011;31958;51.756;-2.556;2023-08-01T09:03:45;3.20;;;1.13;;
45476;SDS011;31958;51.756;-2.556;2023-08-01T09:06:17;3.63;;;1.10;;
45476;SDS011;31958;51.756;-2.556;2023-08-01T09:08:47;4.65;;;1.17;;
45476;SDS011;31958;51.756;-2.556;2023-08-01T09:11:16;6.35;;;1.13;;
45476;SDS011;31958;51.756;-2.556;2023-08-01T09:13:41;4.70;;;1.20;;
45476;SDS011;31958;51.756;-2.556;2023-08-01T09:16:06;4.78;;;1.40;;
45476;SDS011;31958;51.756;-2.556;2023-08-01T09:18:33;5.43;;;1.77;;
45476;SDS011;31958;51.756;-2.556;2023-08-01T09:20:59;4.03;;;1.20;;
45476;SDS011;31958;51.756;-2.556;2023-08-01T09:23:27;4.57;;;1.25;;
45476;SDS011;31958;51.756;-2.556;2023-08-01T09:25:53;4.90;;;1.30;;
45476;SDS011;31958;51.756;-2.556;2023-08-01T09:28:22;6.18;;;1.67;;
45476;SDS011;31958;51.756;-2.556;2023-08-01T09:30:49;5.47;;;1.40;;
45476;SDS011;31958;51.756;-2.556;2023-08-01T09:33:23;4.78;;;1.30;;
45476;SDS011;31958;51.756;-2.556;2023-08-01T09:35:51;4.93;;;1.52;;
45476;SDS011;31958;51.756;-2.556;2023-08-01T09:38:17;6.68;;;1.38;;
45476;SDS011;31958;51.756;-2.556;2023-08-01T09:40:43;5.20;;;1.52;;
45476;SDS011;31958;51.756;-2.556;2023-08-01T09:43:13;4.47;;;1.65;;
45476;SDS011;31958;51.756;-2.556;2023-08-01T09:45:49;5.97;;;1.42;;
45476;SDS011;31958;51.756;-2.556;2023-08-01T09:48:25;5.90;;;1.48;;
45476;SDS011;31958;51.756;-2.556;2023-08-01T09:50:52;5.22;;;1.35;;
45476;SDS011;31958;51.756;-2.556;2023-08-01T09:53:29;6.80;;;1.42;;
45476;SDS011;31958;51.756;-2.556;2023-08-01T09:55:55;6.10;;;1.50;;
45476;SDS011;31958;51.756;-2.556;2023-08-01T09:58:21;5.10;;;1.30;;
45476;SDS011;31958;51.756;-2.556;2023-08-01T10:00:47;6.05;;;1.73;;
45476;SDS011;31958;51.756;-2.556;2023-08-01T10:03:13;4.57;;;1.33;;
45476;SDS011;31958;51.756;-2.556;2023-08-01T10:05:38;3.60;;;1.02;;
45476;SDS011;31958;51.756;-2.556;2023-08-01T10:08:06;4.68;;;1.40;;
45476;SDS011;31958;51.756;-2.556;2023-08-01T10:10:31;7.05;;;1.38;;
45476;SDS011;31958;51.756;-2.556;2023-08-01T10:12:57;3.28;;;1.08;;
45476;SDS011;31958;51.756;-2.556;2023-08-01T10:15:23;5.22;;;1.25;;
45476;SDS011;31958;51.756;-2.556;2023-08-01T10:17:50;2.90;;;1.00;;
45476;SDS011;31958;51.756;-2.556;2023-08-01T10:20:15;6.10;;;1.15;;
45476;SDS011;31958;51.756;-2.556;2023-08-01T10:22:41;2.90;;;0.90;;
45476;SDS011;31958;51.756;-2.556;2023-08-01T10:25:07;5.20;;;1.25;;
45476;SDS011;31958;51.756;-2.556;2023-08-01T10:27:33;2.65;;;1.00;;
45476;SDS011;31958;51.756;-2.556;2023-08-01T10:30:01;2.90;;;1.10;;
45476;SDS011;31958;51.756;-2.556;2023-08-01T10:32:34;3.00;;;1.00;;
45476;SDS011;31958;51.756;-2.556;2023-08-01T10:35:01;3.75;;;1.05;;
45476;SDS011;31958;51.756;-2.556;2023-08-01T10:37:27;2.88;;;0.77;;
45476;SDS011;31958;51.756;-2.556;2023-08-01T10:40:04;3.20;;;1.00;;
45476;SDS011;31958;51.756;-2.556;2023-08-01T10:42:37;1.98;;;0.80;;
45476;SDS011;31958;51.756;-2.556;2023-08-01T10:45:03;2.63;;;0.88;;
45476;SDS011;31958;51.756;-2.556;2023-08-01T10:47:29;7.45;;;1.17;;
45476;SDS011;31958;51.756;-2.556;2023-08-01T10:49:55;3.42;;;1.00;;
45476;SDS011;31958;51.756;-2.556;2023-08-01T10:52:21;2.55;;;0.82;;
45476;SDS011;31958;51.756;-2.556;2023-08-01T10:54:58;2.97;;;0.90;;
45476;SDS011;31958;51.756;-2.556;2023-08-01T10:57:28;2.53;;;0.70;;
45476;SDS011;31958;51.756;-2.556;2023-08-01T10:59:55;2.13;;;0.80;;
45476;SDS011;31958;51.756;-2.556;2023-08-01T11:02:28;3.50;;;1.15;;
45476;SDS011;31958;51.756;-2.556;2023-08-01T11:05:01;2.92;;;0.80;;
45476;SDS011;31958;51.756;-2.556;2023-08-01T11:07:28;7.32;;;1.00;;
45476;SDS011;31958;51.756;-2.556;2023-08-01T11:12:36;4.05;;;1.00;;
45476;SDS011;31958;51.756;-2.556;2023-08-01T11:15:04;4.00;;;1.00;;
45476;SDS011;31958;51.756;-2.556;2023-08-01T11:17:31;2.55;;;0.80;;
45476;SDS011;31958;51.756;-2.556;2023-08-01T11:20:00;2.88;;;0.93;;
45476;SDS011;31958;51.756;-2.556;2023-08-01T11:22:27;2.63;;;0.80;;
45476;SDS011;31958;51.756;-2.556;2023-08-01T11:24:52;3.05;;;0.90;;
45476;SDS011;31958;51.756;-2.556;2023-08-01T11:27:18;4.57;;;1.00;;
45476;SDS011;31958;51.756;-2.556;2023-08-01T11:29:43;5.05;;;0.90;;
45476;SDS011;31958;51.756;-2.556;2023-08-01T11:32:08;2.50;;;0.82;;
45476;SDS011;31958;51.756;-2.556;2023-08-01T11:34:40;2.67;;;0.90;;
45476;SDS011;31958;51.756;-2.556;2023-08-01T11:37:06;2.33;;;0.60;;
45476;SDS011;31958;51.756;-2.556;2023-08-01T11:39:32;2.05;;;0.70;;
45476;SDS011;31958;51.756;-2.556;2023-08-01T11:41:57;2.22;;;0.80;;
45476;SDS011;31958;51.756;-2.556;2023-08-01T11:44:23;6.32;;;0.90;;
45476;SDS011;31958;51.756;-2.556;2023-08-01T11:46:49;1.73;;;0.70;;
45476;SDS011;31958;51.756;-2.556;2023-08-01T11:49:15;1.92;;;0.63;;
45476;SDS011;31958;51.756;-2.556;2023-08-01T11:51:41;3.55;;;1.00;;
45476;SDS011;31958;51.756;-2.556;2023-08-01T11:54:07;4.05;;;1.00;;
45476;SDS011;31958;51.756;-2.556;2023-08-01T11:56:34;2.75;;;0.80;;
45476;SDS011;31958;51.756;-2.556;2023-08-01T11:59:06;2.67;;;1.05;;
45476;SDS011;31958;51.756;-2.556;2023-08-01T12:01:37;4.07;;;1.00;;
45476;SDS011;31958;51.756;-2.556;2023-08-01T12:04:03;2.25;;;0.70;;
45476;SDS011;31958;51.756;-2.556;2023-08-01T12:06:30;2.75;;;0.80;;
45476;SDS011;31958;51.756;-2.556;2023-08-01T12:09:05;2.13;;;0.90;;
45476;SDS011;31958;51.756;-2.556;2023-08-01T12:11:31;3.83;;;0.90;;
45476;SDS011;31958;51.756;-2.556;2023-08-01T12:14:00;2.63;;;0.90;;
45476;SDS011;31958;51.756;-2.556;2023-08-01T12:16:30;5.40;;;0.90;;
45476;SDS011;31958;51.756;-2.556;2023-08-01T12:18:56;2.92;;;0.88;;
45476;SDS011;31958;51.756;-2.556;2023-08-01T12:21:22;2.95;;;0.80;;
45476;SDS011;31958;51.756;-2.556;2023-08-01T12:23:47;1.95;;;0.70;;
45476;SDS011;31958;51.756;-2.556;2023-08-01T12:26:12;4.43;;;0.98;;
45476;SDS011;31958;51.756;-2.556;2023-08-01T12:28:38;2.60;;;0.90;;
45476;SDS011;31958;51.756;-2.556;2023-08-01T12:31:03;2.67;;;0.90;;
45476;SDS011;31958;51.756;-2.556;2023-08-01T12:33:29;2.58;;;0.73;;
45476;SDS011;31958;51.756;-2.556;2023-08-01T12:35:54;3.47;;;0.80;;
45476;SDS011;31958;51.756;-2.556;2023-08-01T12:38:20;3.47;;;0.90;;
45476;SDS011;31958;51.756;-2.556;2023-08-01T12:40:45;2.47;;;0.75;;
45476;SDS011;31958;51.756;-2.556;2023-08-01T12:43:12;2.78;;;0.88;;
45476;SDS011;31958;51.756;-2.556;2023-08-01T12:45:37;2.38;;;0.80;;
45476;SDS011;31958;51.756;-2.556;2023-08-01T12:48:02;2.08;;;0.75;;
45476;SDS011;31958;51.756;-2.556;2023-08-01T12:50:28;2.15;;;0.85;;
45476;SDS011;31958;51.756;-2.556;2023-08-01T12:52:54;2.33;;;0.70;;
45476;SDS011;31958;51.756;-2.556;2023-08-01T12:55:20;3.33;;;0.77;;
45476;SDS011;31958;51.756;-2.556;2023-08-01T12:57:46;3.97;;;0.80;;
45476;SDS011;31958;51.756;-2.556;2023-08-01T13:00:12;3.75;;;0.80;;
45476;SDS011;31958;51.756;-2.556;2023-08-01T13:02:37;2.25;;;0.85;;
45476;SDS011;31958;51.756;-2.556;2023-08-01T13:05:03;3.15;;;0.80;;
45476;SDS011;31958;51.756;-2.556;2023-08-01T13:07:29;4.10;;;0.90;;
45476;SDS011;31958;51.756;-2.556;2023-08-01T13:09:59;2.67;;;0.95;;
45476;SDS011;31958;51.756;-2.556;2023-08-01T13:12:25;3.95;;;0.88;;
45476;SDS011;31958;51.756;-2.556;2023-08-01T13:14:50;4.88;;;1.00;;
45476;SDS011;31958;51.756;-2.556;2023-08-01T13:17:16;4.45;;;0.90;;
45476;SDS011;31958;51.756;-2.556;2023-08-01T13:19:41;3.13;;;0.82;;
45476;SDS011;31958;51.756;-2.556;2023-08-01T13:22:07;5.57;;;1.30;;
45476;SDS011;31958;51.756;-2.556;2023-08-01T13:24:32;8.43;;;1.55;;
45476;SDS011;31958;51.756;-2.556;2023-08-01T13:26:58;6.15;;;1.10;;
45476;SDS011;31958;51.756;-2.556;2023-08-01T13:29:23;1.50;;;0.80;;
45476;SDS011;31958;51.756;-2.556;2023-08-01T13:31:48;4.22;;;1.25;;
45476;SDS011;31958;51.756;-2.556;2023-08-01T13:34:14;1.92;;;0.70;;
45476;SDS011;31958;51.756;-2.556;2023-08-01T13:36:39;5.20;;;0.98;;
45476;SDS011;31958;51.756;-2.556;2023-08-01T13:39:06;5.78;;;1.30;;
45476;SDS011;31958;51.756;-2.556;2023-08-01T13:41:32;2.60;;;0.90;;
45476;SDS011;31958;51.756;-2.556;2023-08-01T13:43:58;5.90;;;1.23;;
45476;SDS011;31958;51.756;-2.556;2023-08-01T13:46:24;4.25;;;1.10;;
45476;SDS011;31958;51.756;-2.556;2023-08-01T13:48:49;6.03;;;1.23;;
45476;SDS011;31958;51.756;-2.556;2023-08-01T13:51:15;4.20;;;1.45;;
45476;SDS011;31958;51.756;-2.556;2023-08-01T13:53:40;7.18;;;1.10;;
45476;SDS011;31958;51.756;-2.556;2023-08-01T13:56:07;6.18;;;1.33;;
45476;SDS011;31958;51.756;-2.556;2023-08-01T13:58:33;6.32;;;1.20;;
45476;SDS011;31958;51.756;-2.556;2023-08-01T14:01:08;8.82;;;1.20;;
45476;SDS011;31958;51.756;-2.556;2023-08-01T14:03:34;5.40;;;1.50;;
45476;SDS011;31958;51.756;-2.556;2023-08-01T14:08:33;8.77;;;1.27;;
45476;SDS011;31958;51.756;-2.556;2023-08-01T14:10:59;5.63;;;1.13;;
45476;SDS011;31958;51.756;-2.556;2023-08-01T14:13:25;9.00;;;1.38;;
45476;SDS011;31958;51.756;-2.556;2023-08-01T14:15:51;4.38;;;0.90;;
45476;SDS011;31958;51.756;-2.556;2023-08-01T14:18:17;3.80;;;0.98;;
45476;SDS011;31958;51.756;-2.556;2023-08-01T14:20:43;3.80;;;0.90;;
45476;SDS011;31958;51.756;-2.556;2023-08-01T14:23:08;4.13;;;1.05;;
45476;SDS011;31958;51.756;-2.556;2023-08-01T14:25:34;4.88;;;1.10;;
45476;SDS011;31958;51.756;-2.556;2023-08-01T14:28:03;6.63;;;1.20;;
45476;SDS011;31958;51.756;-2.556;2023-08-01T14:30:29;3.85;;;0.95;;